Paulina, Louisiana
Current Conditions -  °F | °C
As of 9:35 PM on Monday 22 Dec 2014 (Local Time) from K1L0 Reporting Station
Overcast Overcast  
Wind Chill: 72°   Ceiling: 1200
Heat Index: 72°   Visibility: 7mi
Dew Point: 67°   Wind: 10mph
Humidity: 85%   Direction: 200°SSW
Pressure: 29.73"   Gusts: NA
Location:  30.03°N, 90.71°W
Report Text: K1L0 230335Z AUTO 20009KT 7SM BKN012 BKN037 OVC049 22/20 A2973 RMK AO2 T02230196
Loading
Personal Weather Stations






























Interactive Weather Map New forecast layout! Learn more

10-Day Weather Forecast

Advertisements
Track Severe Weather on mobile